createdAt,value
2023-02-28T00:00:26.389Z,102099.44
2023-02-28T00:04:54.009Z,102105.19
2023-02-28T00:08:56.146Z,102107.69
2023-02-28T00:13:05.092Z,102110.47
2023-02-28T00:17:07.092Z,102109.72
2023-02-28T00:21:09.962Z,102109.81
2023-02-28T00:25:14.180Z,102118.09
2023-02-28T00:29:16.338Z,102111.03
2023-02-28T00:33:20.105Z,102110.09
2023-02-28T00:37:23.255Z,102112.44
2023-02-28T00:41:25.390Z,102103.78
2023-02-28T00:45:27.537Z,102116.25
2023-02-28T00:49:29.387Z,102095.94
2023-02-28T00:53:33.480Z,102100.63
2023-02-28T01:02:20.880Z,102095.50
2023-02-28T01:06:22.974Z,102097.84
2023-02-28T01:10:26.352Z,102089.19
2023-02-28T01:14:28.426Z,102095.22
2023-02-28T01:18:30.588Z,102099.31
2023-02-28T01:22:32.797Z,102093.31
2023-02-28T01:26:34.952Z,102084.59
2023-02-28T01:30:37.427Z,102084.84
2023-02-28T01:34:39.510Z,102093.13
2023-02-28T01:38:41.758Z,102098.19
2023-02-28T01:42:43.831Z,102098.19
2023-02-28T01:46:45.860Z,102100.75
2023-02-28T01:50:50.628Z,102101.69
2023-02-28T01:54:56.724Z,102101.53
2023-02-28T01:58:58.765Z,102115.88
2023-02-28T02:03:07.261Z,102110.31
2023-02-28T02:07:13.109Z,102103.69
2023-02-28T02:11:20.055Z,102098.28
2023-02-28T02:15:40.562Z,102101.75
2023-02-28T02:20:02.733Z,102097.44
2023-02-28T02:24:18.215Z,102105.09
2023-02-28T02:28:53.304Z,102108.38
2023-02-28T02:33:10.231Z,102100.03
2023-02-28T02:37:15.161Z,102097.38
2023-02-28T02:41:29.204Z,102106.56
2023-02-28T02:45:44.713Z,102115.66
2023-02-28T02:49:53.254Z,102120.69
2023-02-28T02:54:02.884Z,102118.31
2023-02-28T02:58:11.219Z,102131.03
2023-02-28T03:02:16.449Z,102125.63
2023-02-28T03:06:18.615Z,102127.19
2023-02-28T03:10:36.915Z,102130.13
2023-02-28T03:14:53.676Z,102129.03
2023-02-28T03:19:18.362Z,102129.81
2023-02-28T03:23:42.535Z,102133.16
2023-02-28T03:28:06.367Z,102134.63
2023-02-28T03:32:25.349Z,102132.75
2023-02-28T03:36:31.113Z,102143.66
2023-02-28T03:40:35.924Z,102130.06
2023-02-28T03:44:45.464Z,102126.66
2023-02-28T03:48:58.584Z,102143.47
2023-02-28T03:53:20.540Z,102147.66
2023-02-28T03:57:41.067Z,102153.00
2023-02-28T04:01:45.909Z,102151.97
2023-02-28T04:05:54.460Z,102151.97
2023-02-28T04:09:57.113Z,102151.84
2023-02-28T04:13:59.140Z,102155.06
2023-02-28T04:18:01.629Z,102149.16
2023-02-28T04:22:04.161Z,102147.53
2023-02-28T04:26:06.969Z,102152.56
2023-02-28T04:30:09.815Z,102160.91
2023-02-28T04:34:11.816Z,102158.34
2023-02-28T04:38:13.874Z,102155.59
2023-02-28T04:42:16.318Z,102153.13
2023-02-28T04:46:19.348Z,102157.94
2023-02-28T04:50:21.385Z,102161.16
2023-02-28T04:54:23.432Z,102158.47
2023-02-28T04:58:26.388Z,102154.50
2023-02-28T05:02:28.048Z,102171.25
2023-02-28T05:06:32.379Z,102174.47
2023-02-28T05:10:34.255Z,102178.78
2023-02-28T05:14:36.232Z,102190.41
2023-02-28T05:18:38.742Z,102198.88
2023-02-28T05:22:41.615Z,102205.94
2023-02-28T05:26:44.101Z,102204.44
2023-02-28T05:30:46.391Z,102205.50
2023-02-28T05:34:48.101Z,102204.44
2023-02-28T05:38:51.187Z,102213.22
2023-02-28T05:42:53.163Z,102205.56
2023-02-28T05:46:55.405Z,102205.16
2023-02-28T05:50:58.850Z,102210.00
2023-02-28T05:55:00.569Z,102226.81
2023-02-28T05:59:02.569Z,102234.94
2023-02-28T06:03:04.768Z,102242.78
2023-02-28T06:07:06.838Z,102245.09
2023-02-28T06:11:08.788Z,102226.94
2023-02-28T06:15:15.570Z,102224.81
2023-02-28T06:19:18.077Z,102222.97
2023-02-28T06:23:19.998Z,102216.75
2023-02-28T06:27:21.610Z,102217.03
2023-02-28T06:31:24.233Z,102217.78
2023-02-28T06:35:26.478Z,102211.88
2023-02-28T06:39:29.959Z,102218.50
2023-02-28T06:43:34.948Z,102226.09
2023-02-28T06:47:38.367Z,102234.38
2023-02-28T06:51:42.642Z,102231.47
2023-02-28T06:55:44.863Z,102240.63
2023-02-28T06:59:47.008Z,102236.13
2023-02-28T07:03:53.065Z,102243.56
2023-02-28T07:07:55.054Z,102244.34
2023-02-28T07:11:57.285Z,102252.72
2023-02-28T07:16:01.728Z,102251.59
2023-02-28T07:20:05.513Z,102267.47
2023-02-28T07:24:07.587Z,102263.78
2023-02-28T07:28:09.487Z,102274.50
2023-02-28T07:32:11.618Z,102266.91
2023-02-28T07:36:18.060Z,102262.28
2023-02-28T07:40:20.217Z,102264.38
2023-02-28T07:44:22.140Z,102263.25
2023-02-28T07:48:24.188Z,102269.47
2023-02-28T07:52:26.286Z,102276.59
2023-02-28T07:56:28.680Z,102282.63
2023-02-28T08:00:32.785Z,102278.75
2023-02-28T08:04:35.055Z,102284.25
2023-02-28T08:08:37.015Z,102277.59
2023-02-28T08:12:38.994Z,102284.53
2023-02-28T08:16:40.981Z,102292.47
2023-02-28T08:20:43.068Z,102274.50
2023-02-28T08:24:45.396Z,102275.47
2023-02-28T08:28:47.414Z,102272.06
2023-02-28T08:32:49.451Z,102273.09
2023-02-28T08:36:51.133Z,102270.88
2023-02-28T08:41:00.395Z,102284.13
2023-02-28T08:45:02.420Z,102280.88
2023-02-28T08:49:04.512Z,102283.59
2023-02-28T08:53:06.426Z,102283.59
2023-02-28T08:57:08.342Z,102283.69
2023-02-28T09:01:13.130Z,102283.91
2023-02-28T09:05:15.149Z,102285.88
2023-02-28T09:09:17.136Z,102280.75
2023-02-28T09:13:20.051Z,102280.22
2023-02-28T09:17:22.052Z,102284.41
2023-02-28T09:21:24.250Z,102291.97
2023-02-28T09:25:26.329Z,102295.69
2023-02-28T09:29:28.292Z,102299.06
2023-02-28T09:33:30.278Z,102292.94
2023-02-28T09:37:32.217Z,102295.56
2023-02-28T09:41:51.421Z,102291.44
2023-02-28T09:46:05.377Z,102291.53
2023-02-28T09:50:24.252Z,102286.34
2023-02-28T09:54:30.408Z,102284.88
2023-02-28T09:58:41.144Z,102287.75
2023-02-28T10:03:28.072Z,102294.41
2023-02-28T10:07:48.653Z,102287.78
2023-02-28T10:11:55.194Z,102289.63
2023-02-28T10:16:22.153Z,102283.66
2023-02-28T10:20:30.939Z,102289.84
2023-02-28T10:24:44.269Z,102282.78
2023-02-28T10:28:46.560Z,102282.00
2023-02-28T10:32:54.764Z,102281.97
2023-02-28T10:36:56.802Z,102277.81
2023-02-28T10:41:10.503Z,102279.66
2023-02-28T10:45:18.073Z,102278.75
2023-02-28T10:49:30.254Z,102278.88
2023-02-28T10:53:52.696Z,102271.03
2023-02-28T10:57:59.061Z,102266.75
2023-02-28T11:02:01.474Z,102262.47
2023-02-28T11:06:09.790Z,102256.56
2023-02-28T11:10:20.312Z,102251.47
2023-02-28T11:14:26.970Z,102247.16
2023-02-28T11:18:35.154Z,102239.34
2023-02-28T11:22:45.483Z,102225.53
2023-02-28T11:26:52.234Z,102216.03
2023-02-28T11:31:17.230Z,102225.59
2023-02-28T11:35:30.601Z,102218.75
2023-02-28T11:39:35.425Z,102217.00
2023-02-28T11:44:09.334Z,102207.47
2023-02-28T11:48:20.245Z,102201.47
2023-02-28T11:52:37.469Z,102195.41
2023-02-28T11:56:48.632Z,102191.94
2023-02-28T12:00:56.694Z,102189.38
2023-02-28T12:05:24.532Z,102183.31
2023-02-28T12:09:42.096Z,102178.97
2023-02-28T12:14:14.425Z,102167.78
2023-02-28T12:18:24.216Z,102168.63
2023-02-28T12:22:43.296Z,102165.19
2023-02-28T12:26:47.464Z,102158.19
2023-02-28T12:31:27.928Z,102159.94
2023-02-28T12:35:38.875Z,102157.31
2023-02-28T12:39:50.527Z,102151.25
2023-02-28T12:44:01.446Z,102141.75
2023-02-28T12:48:07.287Z,102142.59
2023-02-28T12:52:13.629Z,102133.91
2023-02-28T12:56:24.834Z,102133.06
2023-02-28T13:00:34.509Z,102136.53
2023-02-28T13:04:55.143Z,102134.84
2023-02-28T13:09:13.470Z,102130.53
2023-02-28T13:13:18.697Z,102124.47
2023-02-28T13:17:22.925Z,102121.81
2023-02-28T13:21:31.138Z,102111.41
2023-02-28T13:25:42.459Z,102115.72
2023-02-28T13:29:45.495Z,102112.34
2023-02-28T13:34:03.293Z,102101.97
2023-02-28T13:38:16.969Z,102095.06
2023-02-28T13:42:22.243Z,102093.25
2023-02-28T13:46:24.465Z,102098.44
2023-02-28T13:50:26.497Z,102081.03
2023-02-28T13:54:46.721Z,102073.38
2023-02-28T13:58:59.537Z,102078.59
2023-02-28T14:03:12.687Z,102074.25
2023-02-28T14:07:22.181Z,102061.19
2023-02-28T14:11:34.047Z,102059.41
2023-02-28T14:16:01.769Z,102057.66
2023-02-28T14:20:04.685Z,102050.00
2023-02-28T14:24:21.630Z,102053.38
2023-02-28T14:28:40.597Z,102042.94
2023-02-28T14:33:16.549Z,102041.19
2023-02-28T14:37:26.883Z,102040.38
2023-02-28T14:41:37.986Z,102038.63
2023-02-28T14:45:40.202Z,102037.75
2023-02-28T14:49:47.722Z,102030.78
2023-02-28T14:53:57.057Z,102031.75
2023-02-28T14:58:07.368Z,102030.84
2023-02-28T15:02:27.093Z,102024.75
2023-02-28T15:06:31.473Z,102026.63
2023-02-28T15:10:34.980Z,102031.03
2023-02-28T15:14:39.277Z,102026.72
2023-02-28T15:19:00.459Z,102027.63
2023-02-28T15:23:03.058Z,102031.94
2023-02-28T15:27:10.832Z,102031.13
2023-02-28T15:31:56.636Z,102032.03
2023-02-28T15:36:15.448Z,102030.28
2023-02-28T15:40:25.071Z,102032.00
2023-02-28T15:44:30.932Z,102024.97
2023-02-28T15:48:55.964Z,102024.84
2023-02-28T15:52:58.580Z,102032.31
2023-02-28T15:57:09.538Z,102039.22
2023-02-28T16:01:20.456Z,102031.22
2023-02-28T16:05:32.741Z,102037.94
2023-02-28T16:09:35.441Z,102036.81
2023-02-28T16:13:38.276Z,102047.72
2023-02-28T16:17:40.482Z,102043.94
2023-02-28T16:21:42.557Z,102049.59
2023-02-28T16:25:47.261Z,102055.47
2023-02-28T16:29:49.586Z,102045.72
2023-02-28T16:33:51.821Z,102056.63
2023-02-28T16:37:54.896Z,102053.06
2023-02-28T16:41:56.957Z,102051.91
2023-02-28T16:46:01.327Z,102045.88
2023-02-28T16:50:14.071Z,102054.16
2023-02-28T16:54:15.941Z,102061.06
2023-02-28T16:58:18.629Z,102060.03
2023-02-28T17:02:21.185Z,102064.25
2023-02-28T17:06:26.143Z,102066.72
2023-02-28T17:10:28.369Z,102070.94
2023-02-28T17:14:30.609Z,102074.31
2023-02-28T17:18:34.803Z,102068.25
2023-02-28T17:22:36.937Z,102081.00
2023-02-28T17:26:40.810Z,102064.53
2023-02-28T17:30:48.196Z,102071.31
2023-02-28T17:34:50.485Z,102073.81
2023-02-28T17:38:54.277Z,102069.41
2023-02-28T17:42:57.756Z,102053.84
2023-02-28T17:47:00.141Z,102054.59
2023-02-28T17:51:02.178Z,102050.16
2023-02-28T17:55:05.252Z,102047.22
2023-02-28T17:59:10.865Z,102039.44
2023-02-28T18:03:14.412Z,102025.50
2023-02-28T18:07:16.665Z,102023.72
2023-02-28T18:11:20.550Z,102014.06
2023-02-28T18:15:22.857Z,102004.63
2023-02-28T18:19:25.054Z,102002.13
2023-02-28T18:23:27.137Z,101993.22
2023-02-28T18:27:29.363Z,101975.97
2023-02-28T18:31:34.772Z,101984.63
2023-02-28T18:35:37.253Z,101983.84
2023-02-28T18:39:39.773Z,101962.81
2023-02-28T18:43:42.108Z,101957.72
2023-02-28T18:47:44.047Z,101964.56
2023-02-28T18:51:46.799Z,101956.66
2023-02-28T18:55:48.793Z,101966.09
2023-02-28T18:59:50.983Z,101958.56
2023-02-28T19:03:52.992Z,101970.16
2023-02-28T19:07:55.062Z,101970.31
2023-02-28T19:11:57.685Z,101982.44
2023-02-28T19:16:04.774Z,101979.97
2023-02-28T19:20:08.248Z,101987.59
2023-02-28T19:24:10.398Z,101985.72
2023-02-28T19:28:12.985Z,101995.00
2023-02-28T19:32:15.846Z,101987.84
2023-02-28T19:36:17.827Z,101991.06
2023-02-28T19:40:19.985Z,101993.63
2023-02-28T19:44:21.896Z,102004.47
2023-02-28T19:48:25.188Z,102002.47
2023-02-28T19:52:27.263Z,101999.84
2023-02-28T19:56:29.291Z,101996.28
2023-02-28T20:00:30.999Z,101991.75
2023-02-28T20:04:33.109Z,101992.66
2023-02-28T20:08:36.823Z,101984.88
2023-02-28T20:12:38.998Z,101992.41
2023-02-28T20:16:41.420Z,101995.84
2023-02-28T20:20:43.532Z,101993.25
2023-02-28T20:24:46.261Z,101998.22
2023-02-28T20:28:48.383Z,101995.41
2023-02-28T20:32:50.300Z,101982.44
2023-02-28T20:36:52.511Z,101967.66
2023-02-28T20:40:56.321Z,101948.91
2023-02-28T20:44:58.378Z,101947.91
2023-02-28T20:49:00.378Z,101963.44
2023-02-28T20:53:02.419Z,101960.94
2023-02-28T20:57:04.335Z,101954.28
2023-02-28T21:01:18.386Z,101949.03
2023-02-28T21:05:20.429Z,101952.00
2023-02-28T21:09:22.409Z,101960.34
2023-02-28T21:13:24.378Z,101946.41
2023-02-28T21:17:28.109Z,101950.66
2023-02-28T21:21:32.448Z,101949.75
2023-02-28T21:25:34.488Z,101948.63
2023-02-28T21:29:36.541Z,101952.03
2023-02-28T21:33:38.826Z,101946.63
2023-02-28T21:37:40.656Z,101944.22
2023-02-28T21:41:42.758Z,101935.59
2023-02-28T21:45:44.666Z,101933.03
2023-02-28T21:49:46.669Z,101933.00
2023-02-28T21:53:49.841Z,101948.88
2023-02-28T21:57:51.882Z,101941.75
2023-02-28T22:01:55.395Z,101949.31
2023-02-28T22:05:57.503Z,101945.03
2023-02-28T22:09:59.168Z,101939.69
2023-02-28T22:14:01.661Z,101935.28
2023-02-28T22:18:03.768Z,101937.78
2023-02-28T22:22:05.748Z,101932.72
2023-02-28T22:26:10.556Z,101919.78
2023-02-28T22:30:12.955Z,101929.50
2023-02-28T22:34:14.939Z,101926.03
2023-02-28T22:38:17.010Z,101920.88
2023-02-28T22:42:18.979Z,101910.06
2023-02-28T22:46:22.791Z,101903.31
2023-02-28T22:50:25.582Z,101905.66
2023-02-28T22:54:27.686Z,101918.41
2023-02-28T22:58:30.278Z,101911.72
2023-02-28T23:02:32.837Z,101922.06
2023-02-28T23:06:41.974Z,101926.50
2023-02-28T23:10:43.994Z,101930.16
2023-02-28T23:14:46.002Z,101929.44
2023-02-28T23:18:48.137Z,101933.53
2023-02-28T23:22:50.570Z,101927.66
2023-02-28T23:26:54.774Z,101919.13
2023-02-28T23:31:04.471Z,101915.75
2023-02-28T23:35:10.981Z,101914.06
2023-02-28T23:39:16.139Z,101922.44
2023-02-28T23:43:18.774Z,101925.91
2023-02-28T23:47:20.919Z,101923.56
2023-02-28T23:51:22.995Z,101923.75
2023-02-28T23:55:25.925Z,101924.44
2023-02-28T23:59:28.234Z,101927.94
